createdAt,value
2023-05-02T00:00:01.522Z,102151.19
2023-05-02T00:02:28.749Z,102141.56
2023-05-02T00:04:57.647Z,102138.69
2023-05-02T00:07:26.909Z,102137.06
2023-05-02T00:09:53.399Z,102149.47
2023-05-02T00:12:20.153Z,102145.00
2023-05-02T00:14:48.742Z,102146.47
2023-05-02T00:17:19.699Z,102150.16
2023-05-02T00:19:49.218Z,102145.00
2023-05-02T00:22:15.668Z,102148.38
2023-05-02T00:24:42.186Z,102147.41
2023-05-02T00:27:08.611Z,102148.50
2023-05-02T00:29:37.511Z,102148.22
2023-05-02T00:32:03.992Z,102152.25
2023-05-02T00:34:31.524Z,102154.97
2023-05-02T00:36:58.154Z,102151.97
2023-05-02T00:39:24.698Z,102147.78
2023-05-02T00:42:00.760Z,102144.53
2023-05-02T00:44:28.294Z,102145.34
2023-05-02T00:46:56.106Z,102142.13
2023-05-02T00:49:22.850Z,102151.44
2023-05-02T00:51:51.860Z,102151.31
2023-05-02T00:54:18.512Z,102159.03
2023-05-02T00:56:45.166Z,102164.44
2023-05-02T00:59:12.303Z,102162.03
2023-05-02T01:02:23.514Z,102166.38
2023-05-02T01:05:13.214Z,102168.94
2023-05-02T01:07:57.941Z,102167.97
2023-05-02T01:10:44.907Z,102178.41
2023-05-02T01:13:20.514Z,102174.88
2023-05-02T01:15:49.228Z,102174.88
2023-05-02T01:18:18.521Z,102172.31
2023-05-02T01:20:49.228Z,102170.72
2023-05-02T01:24:00.378Z,102177.75
2023-05-02T01:26:36.308Z,102178.06
2023-05-02T01:29:11.143Z,102180.38
2023-05-02T01:31:45.594Z,102181.13
2023-05-02T01:34:12.337Z,102188.19
2023-05-02T01:36:44.010Z,102192.78
2023-05-02T01:39:18.521Z,102192.53
2023-05-02T01:41:48.843Z,102195.56
2023-05-02T01:44:17.214Z,102200.69
2023-05-02T01:46:45.398Z,102201.28
2023-05-02T01:49:11.902Z,102207.22
2023-05-02T01:51:46.118Z,102208.28
2023-05-02T01:54:14.106Z,102219.03
2023-05-02T01:56:43.747Z,102225.91
2023-05-02T01:59:20.176Z,102235.66
2023-05-02T02:01:51.667Z,102233.53
2023-05-02T02:04:23.769Z,102238.69
2023-05-02T02:07:04.463Z,102245.91
2023-05-02T02:09:31.454Z,102240.06
2023-05-02T02:12:11.350Z,102237.66
2023-05-02T02:14:46.347Z,102241.19
2023-05-02T02:17:25.662Z,102237.13
2023-05-02T02:19:59.292Z,102243.88
2023-05-02T02:22:34.473Z,102248.88
2023-05-02T02:25:03.678Z,102250.75
2023-05-02T02:27:30.235Z,102257.66
2023-05-02T02:29:59.174Z,102261.19
2023-05-02T02:32:28.202Z,102263.91
2023-05-02T02:34:56.969Z,102263.34
2023-05-02T02:37:33.804Z,102272.81
2023-05-02T02:40:28.605Z,102270.41
2023-05-02T02:43:28.825Z,102271.06
2023-05-02T02:46:28.619Z,102277.28
2023-05-02T02:48:57.370Z,102279.06
2023-05-02T02:51:36.842Z,102278.91
2023-05-02T02:54:25.853Z,102281.75
2023-05-02T02:57:05.003Z,102285.41
2023-05-02T02:59:41.326Z,102288.53
2023-05-02T03:02:10.411Z,102292.03
2023-05-02T03:04:45.739Z,102299.88
2023-05-02T03:07:14.993Z,102297.31
2023-05-02T03:09:48.432Z,102304.84
2023-05-02T03:12:14.956Z,102304.19
2023-05-02T03:14:42.273Z,102306.09
2023-05-02T03:17:11.197Z,102312.03
2023-05-02T03:19:42.237Z,102308.53
2023-05-02T03:22:11.298Z,102310.81
2023-05-02T03:24:37.845Z,102319.34
2023-05-02T03:27:04.550Z,102316.06
2023-05-02T03:29:31.209Z,102321.22
2023-05-02T03:32:02.483Z,102319.59
2023-05-02T03:34:29.032Z,102323.91
2023-05-02T03:36:55.527Z,102326.63
2023-05-02T03:39:22.116Z,102333.78
2023-05-02T03:41:51.128Z,102337.16
2023-05-02T03:44:22.453Z,102338.78
2023-05-02T03:46:49.048Z,102343.09
2023-05-02T03:49:19.558Z,102339.59
2023-05-02T03:51:48.580Z,102343.78
2023-05-02T03:54:19.920Z,102346.47
2023-05-02T03:56:47.007Z,102345.81
2023-05-02T03:59:18.763Z,102352.31
2023-05-02T04:01:45.434Z,102352.56
2023-05-02T04:04:12.228Z,102351.91
2023-05-02T04:06:38.864Z,102352.84
2023-05-02T04:09:10.041Z,102362.31
2023-05-02T04:11:36.512Z,102362.72
2023-05-02T04:14:05.500Z,102365.41
2023-05-02T04:16:36.921Z,102369.84
2023-05-02T04:19:03.424Z,102375.78
2023-05-02T04:21:29.920Z,102374.84
2023-05-02T04:23:56.370Z,102374.03
2023-05-02T04:26:25.137Z,102382.53
2023-05-02T04:28:51.905Z,102382.81
2023-05-02T04:31:18.489Z,102390.38
2023-05-02T04:33:45.427Z,102384.56
2023-05-02T04:36:17.022Z,102386.34
2023-05-02T04:38:43.663Z,102401.59
2023-05-02T04:41:10.445Z,102407.38
2023-05-02T04:43:39.283Z,102408.63
2023-05-02T04:46:05.992Z,102415.34
2023-05-02T04:48:34.815Z,102416.94
2023-05-02T04:51:03.620Z,102419.13
2023-05-02T04:53:30.103Z,102426.81
2023-05-02T04:55:59.231Z,102434.75
2023-05-02T04:58:25.731Z,102443.38
2023-05-02T05:00:54.971Z,102446.63
2023-05-02T05:03:21.939Z,102449.88
2023-05-02T05:05:50.789Z,102453.13
2023-05-02T05:08:17.264Z,102449.75
2023-05-02T05:10:43.756Z,102453.50
2023-05-02T05:13:12.518Z,102452.69
2023-05-02T05:15:39.083Z,102467.00
2023-05-02T05:18:08.161Z,102465.28
2023-05-02T05:20:39.955Z,102473.88
2023-05-02T05:23:06.477Z,102474.03
2023-05-02T05:25:34.005Z,102479.31
2023-05-02T05:28:03.426Z,102482.56
2023-05-02T05:30:31.026Z,102489.44
2023-05-02T05:32:58.642Z,102489.06
2023-05-02T05:35:27.699Z,102494.44
2023-05-02T05:37:56.540Z,102499.00
2023-05-02T05:40:25.491Z,102503.13
2023-05-02T05:42:54.436Z,102511.91
2023-05-02T05:45:23.320Z,102521.72
2023-05-02T05:47:49.811Z,102518.22
2023-05-02T05:50:16.693Z,102522.78
2023-05-02T05:52:45.479Z,102534.41
2023-05-02T05:55:16.937Z,102537.34
2023-05-02T05:57:45.848Z,102542.91
2023-05-02T06:00:13.139Z,102544.28
2023-05-02T06:02:41.934Z,102550.91
2023-05-02T06:05:08.698Z,102548.09
2023-05-02T06:07:37.752Z,102552.13
2023-05-02T06:10:04.826Z,102550.81
2023-05-02T06:12:31.441Z,102557.97
2023-05-02T06:15:00.317Z,102558.59
2023-05-02T06:17:28.918Z,102559.84
2023-05-02T06:19:55.344Z,102558.94
2023-05-02T06:22:24.487Z,102568.25
2023-05-02T06:24:51.051Z,102571.63
2023-05-02T06:27:20.022Z,102581.78
2023-05-02T06:29:46.453Z,102583.25
2023-05-02T06:32:13.063Z,102583.13
2023-05-02T06:34:42.095Z,102594.19
2023-05-02T06:37:08.610Z,102594.44
2023-05-02T06:39:35.085Z,102594.31
2023-05-02T06:42:04.061Z,102601.00
2023-05-02T06:44:30.569Z,102605.47
2023-05-02T06:46:57.170Z,102611.69
2023-05-02T06:49:23.712Z,102617.44
2023-05-02T06:51:50.228Z,102619.03
2023-05-02T06:54:19.063Z,102631.94
2023-05-02T06:56:48.042Z,102633.28
2023-05-02T06:59:16.628Z,102635.91
2023-05-02T07:01:51.100Z,102642.56
2023-05-02T07:04:17.620Z,102646.97
2023-05-02T07:06:46.756Z,102651.69
2023-05-02T07:09:15.557Z,102655.06
2023-05-02T07:11:44.418Z,102654.63
2023-05-02T07:14:15.774Z,102661.88
2023-05-02T07:16:42.311Z,102662.72
2023-05-02T07:19:08.824Z,102674.09
2023-05-02T07:21:35.240Z,102666.94
2023-05-02T07:24:03.917Z,102668.00
2023-05-02T07:26:30.456Z,102667.81
2023-05-02T07:28:56.935Z,102685.38
2023-05-02T07:31:23.567Z,102686.59
2023-05-02T07:33:50.190Z,102691.94
2023-05-02T07:36:19.229Z,102681.75
2023-05-02T07:38:45.853Z,102693.84
2023-05-02T07:41:14.643Z,102689.66
2023-05-02T07:43:41.100Z,102686.44
2023-05-02T07:46:07.590Z,102697.75
2023-05-02T07:48:36.421Z,102695.28
2023-05-02T07:51:07.325Z,102694.38
2023-05-02T07:53:36.108Z,102698.81
2023-05-02T07:56:12.747Z,102702.59
2023-05-02T07:58:41.568Z,102699.94
2023-05-02T08:01:10.564Z,102706.78
2023-05-02T08:03:37.224Z,102705.63
2023-05-02T08:06:06.263Z,102707.13
2023-05-02T08:08:32.843Z,102712.06
2023-05-02T08:10:59.294Z,102718.53
2023-05-02T08:13:28.357Z,102714.88
2023-05-02T08:16:00.387Z,102717.69
2023-05-02T08:18:27.592Z,102722.69
2023-05-02T08:21:01.850Z,102724.22
2023-05-02T08:23:28.292Z,102731.56
2023-05-02T08:25:54.831Z,102732.34
2023-05-02T08:28:21.352Z,102733.59
2023-05-02T08:30:50.198Z,102740.16
2023-05-02T08:33:16.893Z,102737.88
2023-05-02T08:35:43.550Z,102737.53
2023-05-02T08:38:10.121Z,102739.81
2023-05-02T08:40:42.600Z,102753.53
2023-05-02T08:43:11.940Z,102746.75
2023-05-02T08:45:43.838Z,102747.16
2023-05-02T08:48:16.960Z,102755.00
2023-05-02T08:50:49.619Z,102757.00
2023-05-02T08:53:18.028Z,102760.94
2023-05-02T08:55:44.503Z,102760.78
2023-05-02T08:58:15.369Z,102766.34
2023-05-02T09:00:48.673Z,102770.97
2023-05-02T09:03:23.955Z,102768.69
2023-05-02T09:05:59.916Z,102768.69
2023-05-02T09:08:26.785Z,102769.91
2023-05-02T09:10:55.733Z,102764.06
2023-05-02T09:13:36.241Z,102781.13
2023-05-02T09:16:04.146Z,102781.25
2023-05-02T09:18:41.344Z,102783.16
2023-05-02T09:21:15.317Z,102792.66
2023-05-02T09:23:46.588Z,102786.56
2023-05-02T09:26:23.341Z,102784.94
2023-05-02T09:28:56.159Z,102781.97
2023-05-02T09:31:49.574Z,102795.56
2023-05-02T09:34:19.806Z,102791.88
2023-05-02T09:36:50.418Z,102797.25
2023-05-02T09:39:22.480Z,102799.66
2023-05-02T09:41:50.825Z,102804.28
2023-05-02T09:44:19.502Z,102804.81
2023-05-02T09:47:00.250Z,102800.00
2023-05-02T09:49:49.686Z,102808.91
2023-05-02T09:52:18.020Z,102808.75
2023-05-02T09:54:46.746Z,102807.78
2023-05-02T09:57:13.717Z,102807.84
2023-05-02T09:59:54.095Z,102814.13
2023-05-02T10:02:21.805Z,102807.97
2023-05-02T10:04:49.915Z,102807.94
2023-05-02T10:07:19.981Z,102804.78
2023-05-02T10:09:50.972Z,102804.75
2023-05-02T10:12:18.888Z,102806.16
2023-05-02T10:14:59.282Z,102813.00
2023-05-02T10:17:31.995Z,102814.44
2023-05-02T10:20:06.793Z,102816.25
2023-05-02T10:22:36.836Z,102824.06
2023-05-02T10:25:06.181Z,102828.78
2023-05-02T10:27:33.279Z,102834.72
2023-05-02T10:30:01.200Z,102827.97
2023-05-02T10:32:28.506Z,102831.84
2023-05-02T10:35:02.236Z,102842.66
2023-05-02T10:37:33.563Z,102846.06
2023-05-02T10:40:03.299Z,102843.81
2023-05-02T10:42:39.965Z,102845.47
2023-05-02T10:45:32.459Z,102845.97
2023-05-02T10:48:22.635Z,102849.38
2023-05-02T10:50:53.476Z,102837.22
2023-05-02T10:53:22.888Z,102843.44
2023-05-02T10:56:11.257Z,102845.47
2023-05-02T10:58:37.749Z,102848.78
2023-05-02T11:01:29.315Z,102850.38
2023-05-02T11:04:01.397Z,102849.97
2023-05-02T11:06:29.945Z,102854.13
2023-05-02T11:09:28.896Z,102857.19
2023-05-02T11:11:57.028Z,102865.69
2023-05-02T11:14:26.534Z,102857.63
2023-05-02T11:16:59.522Z,102855.91
2023-05-02T11:19:31.548Z,102868.06
2023-05-02T11:22:27.993Z,102856.47
2023-05-02T11:24:54.691Z,102851.31
2023-05-02T11:27:30.541Z,102857.59
2023-05-02T11:30:09.885Z,102861.66
2023-05-02T11:32:49.578Z,102856.84
2023-05-02T11:35:20.283Z,102858.59
2023-05-02T11:38:11.620Z,102857.31
2023-05-02T11:40:38.483Z,102858.91
2023-05-02T11:43:18.290Z,102859.47
2023-05-02T11:45:47.507Z,102866.81
2023-05-02T11:48:18.944Z,102860.34
2023-05-02T11:50:50.891Z,102859.66
2023-05-02T11:53:23.630Z,102863.66
2023-05-02T11:56:07.488Z,102864.81
2023-05-02T11:58:36.456Z,102873.06
2023-05-02T12:01:18.031Z,102875.78
2023-05-02T12:03:45.146Z,102882.78
2023-05-02T12:06:22.987Z,102882.31
2023-05-02T12:08:49.670Z,102892.06
2023-05-02T12:11:18.780Z,102888.19
2023-05-02T12:13:49.985Z,102887.13
2023-05-02T12:16:18.223Z,102888.75
2023-05-02T12:18:45.178Z,102898.31
2023-05-02T12:21:11.874Z,102903.28
2023-05-02T12:23:39.936Z,102906.75
2023-05-02T12:26:25.171Z,102909.56
2023-05-02T12:28:52.767Z,102912.03
2023-05-02T12:31:28.062Z,102907.44
2023-05-02T12:34:00.543Z,102914.81
2023-05-02T12:36:33.896Z,102911.75
2023-05-02T12:39:06.120Z,102925.13
2023-05-02T12:41:39.021Z,102920.06
2023-05-02T12:44:07.245Z,102928.56
2023-05-02T12:46:36.497Z,102915.44
2023-05-02T12:49:04.078Z,102911.81
2023-05-02T12:51:31.779Z,102924.44
2023-05-02T12:54:04.814Z,102925.75
2023-05-02T12:56:39.427Z,102931.94
2023-05-02T12:59:10.878Z,102938.44
2023-05-02T13:01:37.757Z,102938.50
2023-05-02T13:04:10.222Z,102932.63
2023-05-02T13:06:39.148Z,102929.75
2023-05-02T13:09:07.921Z,102933.22
2023-05-02T13:11:36.982Z,102932.94
2023-05-02T13:14:05.651Z,102925.38
2023-05-02T13:16:36.720Z,102931.22
2023-05-02T13:19:06.086Z,102933.94
2023-05-02T13:21:32.655Z,102929.84
2023-05-02T13:23:59.205Z,102928.06
2023-05-02T13:26:30.552Z,102923.75
2023-05-02T13:28:59.721Z,102920.28
2023-05-02T13:31:26.197Z,102924.78
2023-05-02T13:33:57.605Z,102938.00
2023-05-02T13:36:24.602Z,102934.13
2023-05-02T13:38:51.341Z,102939.78
2023-05-02T13:41:21.546Z,102929.97
2023-05-02T13:43:50.439Z,102921.25
2023-05-02T13:46:17.190Z,102932.94
2023-05-02T13:48:43.873Z,102924.47
2023-05-02T13:51:10.337Z,102938.09
2023-05-02T13:53:37.414Z,102932.34
2023-05-02T13:56:06.129Z,102936.59
2023-05-02T13:58:34.905Z,102930.44
2023-05-02T14:01:04.369Z,102944.13
2023-05-02T14:03:30.983Z,102936.50
2023-05-02T14:06:00.173Z,102938.28
2023-05-02T14:08:31.264Z,102945.31
2023-05-02T14:10:57.803Z,102947.13
2023-05-02T14:13:26.482Z,102943.81
2023-05-02T14:15:56.076Z,102947.25
2023-05-02T14:18:24.913Z,102935.84
2023-05-02T14:20:51.452Z,102934.88
2023-05-02T14:23:19.972Z,102934.34
2023-05-02T14:25:46.439Z,102949.56
2023-05-02T14:28:16.443Z,102942.16
2023-05-02T14:30:42.888Z,102943.06
2023-05-02T14:33:09.675Z,102945.41
2023-05-02T14:35:38.601Z,102949.16
2023-05-02T14:38:07.405Z,102942.31
2023-05-02T14:40:33.921Z,102949.41
2023-05-02T14:43:00.828Z,102953.94
2023-05-02T14:45:27.344Z,102955.91
2023-05-02T14:47:57.804Z,102960.44
2023-05-02T14:50:24.586Z,102953.41
2023-05-02T14:52:56.053Z,102952.09
2023-05-02T14:55:22.583Z,102951.28
2023-05-02T14:57:51.177Z,102948.13
2023-05-02T15:00:18.022Z,102954.31
2023-05-02T15:02:46.918Z,102947.13
2023-05-02T15:05:13.711Z,102945.38
2023-05-02T15:07:40.302Z,102939.34
2023-05-02T15:10:07.287Z,102947.34
2023-05-02T15:12:36.263Z,102946.03
2023-05-02T15:15:02.966Z,102948.34
2023-05-02T15:17:29.429Z,102943.28
2023-05-02T15:19:58.276Z,102940.53
2023-05-02T15:22:26.089Z,102944.63
2023-05-02T15:24:52.636Z,102940.28
2023-05-02T15:27:23.854Z,102945.25
2023-05-02T15:29:52.776Z,102935.56
2023-05-02T15:32:24.153Z,102940.44
2023-05-02T15:34:50.762Z,102948.41
2023-05-02T15:37:17.295Z,102943.41
2023-05-02T15:39:43.749Z,102944.13
2023-05-02T15:42:10.902Z,102943.25
2023-05-02T15:44:37.707Z,102944.44
2023-05-02T15:47:04.397Z,102947.34
2023-05-02T15:49:34.592Z,102952.09
2023-05-02T15:52:03.778Z,102949.66
2023-05-02T15:54:32.810Z,102951.47
2023-05-02T15:57:02.635Z,102953.06
2023-05-02T15:59:29.224Z,102956.97
2023-05-02T16:01:58.070Z,102958.97
2023-05-02T16:04:25.212Z,102955.00
2023-05-02T16:06:51.935Z,102961.97
2023-05-02T16:09:21.125Z,102957.88
2023-05-02T16:11:49.975Z,102959.25
2023-05-02T16:14:16.483Z,102959.00
2023-05-02T16:16:43.032Z,102963.97
2023-05-02T16:19:13.317Z,102965.84
2023-05-02T16:21:42.967Z,102963.75
2023-05-02T16:24:10.123Z,102955.97
2023-05-02T16:26:36.662Z,102961.41
2023-05-02T16:29:03.222Z,102966.84
2023-05-02T16:31:32.220Z,102975.63
2023-05-02T16:33:58.877Z,102974.38
2023-05-02T16:36:26.349Z,102974.50
2023-05-02T16:38:55.483Z,102964.88
2023-05-02T16:41:21.988Z,102966.63
2023-05-02T16:43:49.674Z,102972.25
2023-05-02T16:46:16.550Z,102969.53
2023-05-02T16:48:42.993Z,102956.94
2023-05-02T16:51:09.480Z,102964.78
2023-05-02T16:53:36.109Z,102967.78
2023-05-02T16:56:02.538Z,102975.63
2023-05-02T16:58:29.292Z,102966.53
2023-05-02T17:00:58.384Z,102972.19
2023-05-02T17:03:27.808Z,102978.25
2023-05-02T17:05:57.326Z,102983.63
2023-05-02T17:08:24.924Z,102984.13
2023-05-02T17:10:51.525Z,102982.91
2023-05-02T17:13:20.648Z,102991.13
2023-05-02T17:15:49.433Z,102984.25
2023-05-02T17:18:16.250Z,102996.44
2023-05-02T17:20:47.717Z,102992.53
2023-05-02T17:23:16.825Z,102991.13
2023-05-02T17:25:43.377Z,102991.47
2023-05-02T17:28:12.296Z,102992.09
2023-05-02T17:30:38.744Z,102987.56
2023-05-02T17:33:05.803Z,102982.50
2023-05-02T17:35:34.378Z,102975.41
2023-05-02T17:38:03.221Z,102980.25
2023-05-02T17:40:36.147Z,102987.50
2023-05-02T17:43:05.330Z,102990.16
2023-05-02T17:45:37.098Z,102987.06
2023-05-02T17:48:08.677Z,102991.38
2023-05-02T17:50:39.426Z,102991.75
2023-05-02T17:53:07.204Z,102995.25
2023-05-02T17:55:37.564Z,102997.91
2023-05-02T17:58:04.323Z,103004.13
2023-05-02T18:00:30.775Z,103003.75
2023-05-02T18:02:57.431Z,103000.13
2023-05-02T18:05:26.243Z,103005.38
2023-05-02T18:07:53.163Z,102998.38
2023-05-02T18:10:21.994Z,103007.25
2023-05-02T18:12:48.585Z,103003.19
2023-05-02T18:15:17.437Z,103003.41
2023-05-02T18:17:46.236Z,103004.97
2023-05-02T18:20:13.442Z,103014.06
2023-05-02T18:22:42.732Z,103009.56
2023-05-02T18:25:12.023Z,103014.22
2023-05-02T18:27:38.516Z,103014.69
2023-05-02T18:30:08.115Z,103013.44
2023-05-02T18:32:34.906Z,103013.78
2023-05-02T18:35:04.318Z,103014.94
2023-05-02T18:37:36.699Z,103013.66
2023-05-02T18:40:03.253Z,103010.63
2023-05-02T18:42:29.749Z,103011.94
2023-05-02T18:45:01.452Z,103023.47
2023-05-02T18:47:31.560Z,103021.28
2023-05-02T18:49:59.704Z,103021.72
2023-05-02T18:52:29.067Z,103023.94
2023-05-02T18:54:55.528Z,103023.47
2023-05-02T18:57:24.449Z,103022.97
2023-05-02T18:59:51.246Z,103023.31
2023-05-02T19:02:17.762Z,103027.88
2023-05-02T19:04:44.401Z,103019.59
2023-05-02T19:07:13.256Z,103024.25
2023-05-02T19:09:44.649Z,103030.31
2023-05-02T19:12:13.483Z,103039.13
2023-05-02T19:14:40.236Z,103037.00
2023-05-02T19:17:06.849Z,103037.31
2023-05-02T19:19:33.356Z,103036.84
2023-05-02T19:22:02.194Z,103039.53
2023-05-02T19:24:28.700Z,103038.84
2023-05-02T19:26:57.795Z,103042.53
2023-05-02T19:29:24.269Z,103043.34
2023-05-02T19:31:50.810Z,103051.38
2023-05-02T19:34:19.895Z,103051.69
2023-05-02T19:36:46.569Z,103051.00
2023-05-02T19:39:13.193Z,103049.47
2023-05-02T19:41:42.402Z,103046.19
2023-05-02T19:44:08.892Z,103048.16
2023-05-02T19:46:37.807Z,103051.75
2023-05-02T19:49:04.278Z,103047.91
2023-05-02T19:51:34.290Z,103054.75
2023-05-02T19:54:03.052Z,103050.09
2023-05-02T19:56:31.936Z,103049.59
2023-05-02T19:58:58.794Z,103055.97
2023-05-02T20:01:29.519Z,103052.78
2023-05-02T20:03:58.349Z,103050.47
2023-05-02T20:06:25.584Z,103055.09
2023-05-02T20:08:52.977Z,103054.34
2023-05-02T20:11:19.703Z,103059.72
2023-05-02T20:13:46.266Z,103070.88
2023-05-02T20:16:16.014Z,103075.47
2023-05-02T20:18:42.574Z,103079.16
2023-05-02T20:21:09.146Z,103091.56
2023-05-02T20:23:35.620Z,103080.03
2023-05-02T20:26:02.127Z,103075.09
2023-05-02T20:28:28.616Z,103075.28
2023-05-02T20:30:59.905Z,103076.44
2023-05-02T20:33:33.662Z,103073.97
2023-05-02T20:36:08.396Z,103077.69
2023-05-02T20:38:34.857Z,103094.97
2023-05-02T20:41:07.724Z,103091.78
2023-05-02T20:43:36.567Z,103090.25
2023-05-02T20:46:13.156Z,103099.16
2023-05-02T20:48:39.647Z,103098.94
2023-05-02T20:51:06.680Z,103109.69
2023-05-02T20:53:33.222Z,103114.19
2023-05-02T20:55:59.737Z,103107.94
2023-05-02T20:58:26.401Z,103114.19
2023-05-02T21:00:54.048Z,103114.06
2023-05-02T21:03:24.389Z,103107.63
2023-05-02T21:05:55.572Z,103106.91
2023-05-02T21:08:22.150Z,103103.44
2023-05-02T21:10:48.756Z,103105.38
2023-05-02T21:13:17.645Z,103107.31
2023-05-02T21:15:46.508Z,103104.94
2023-05-02T21:18:15.532Z,103107.91
2023-05-02T21:20:42.066Z,103120.03
2023-05-02T21:23:11.267Z,103114.94
2023-05-02T21:25:38.436Z,103103.31
2023-05-02T21:28:05.944Z,103108.59
2023-05-02T21:30:32.810Z,103113.41
2023-05-02T21:32:59.355Z,103107.03
2023-05-02T21:35:25.869Z,103105.59
2023-05-02T21:37:52.361Z,103102.03
2023-05-02T21:40:18.963Z,103098.75
2023-05-02T21:42:45.453Z,103104.03
2023-05-02T21:45:12.085Z,103103.41
2023-05-02T21:47:38.942Z,103094.03
2023-05-02T21:50:10.580Z,103096.69
2023-05-02T21:52:39.624Z,103099.63
2023-05-02T21:55:06.625Z,103100.72
2023-05-02T21:57:33.126Z,103100.13
2023-05-02T21:59:59.568Z,103102.94
2023-05-02T22:02:28.690Z,103105.16
2023-05-02T22:04:58.148Z,103103.69
2023-05-02T22:07:24.963Z,103101.41
2023-05-02T22:09:51.441Z,103094.84
2023-05-02T22:12:23.687Z,103094.75
2023-05-02T22:14:50.229Z,103091.59
2023-05-02T22:17:18.530Z,103085.94
2023-05-02T22:19:50.410Z,103088.50
2023-05-02T22:22:19.797Z,103090.59
2023-05-02T22:24:46.231Z,103082.50
2023-05-02T22:27:12.709Z,103080.69
2023-05-02T22:29:41.685Z,103080.38
2023-05-02T22:32:13.319Z,103083.84
2023-05-02T22:34:39.923Z,103078.13
2023-05-02T22:37:06.449Z,103082.50
2023-05-02T22:39:32.896Z,103082.88
2023-05-02T22:42:04.118Z,103085.63
2023-05-02T22:44:32.191Z,103082.34
2023-05-02T22:47:05.086Z,103078.53
2023-05-02T22:49:33.105Z,103076.91
2023-05-02T22:52:02.639Z,103081.88
2023-05-02T22:54:31.376Z,103083.63
2023-05-02T22:56:57.817Z,103078.53
2023-05-02T22:59:27.453Z,103078.53
2023-05-02T23:01:53.918Z,103086.53
2023-05-02T23:04:21.354Z,103082.69
2023-05-02T23:06:50.275Z,103081.28
2023-05-02T23:09:19.145Z,103079.34
2023-05-02T23:11:48.079Z,103083.34
2023-05-02T23:14:15.246Z,103091.09
2023-05-02T23:16:41.783Z,103083.44
2023-05-02T23:19:08.295Z,103097.94
2023-05-02T23:21:36.836Z,103091.38
2023-05-02T23:24:08.120Z,103106.00
2023-05-02T23:26:34.668Z,103104.84
2023-05-02T23:29:01.221Z,103107.47
2023-05-02T23:31:32.398Z,103099.28
2023-05-02T23:34:01.194Z,103099.28
2023-05-02T23:36:27.790Z,103101.91
2023-05-02T23:38:54.445Z,103114.75
2023-05-02T23:41:22.196Z,103111.81
2023-05-02T23:43:48.850Z,103117.81
2023-05-02T23:46:15.372Z,103109.38
2023-05-02T23:48:41.890Z,103123.75
2023-05-02T23:51:10.811Z,103113.47
2023-05-02T23:53:40.375Z,103124.50
2023-05-02T23:56:07.188Z,103124.84
2023-05-02T23:58:33.663Z,103135.03
